createdAt,value
2023-01-08T00:01:34.641Z,97034.00
2023-01-08T00:04:04.257Z,97026.00
2023-01-08T00:06:34.802Z,97042.00
2023-01-08T00:09:04.481Z,97035.00
2023-01-08T00:11:32.665Z,97036.00
2023-01-08T00:14:00.874Z,97013.00
2023-01-08T00:16:29.272Z,97018.00
2023-01-08T00:18:57.415Z,97011.00
2023-01-08T00:21:27.038Z,97011.00
2023-01-08T00:23:55.184Z,97019.00
2023-01-08T00:26:23.318Z,97026.00
2023-01-08T00:28:53.221Z,97012.00
2023-01-08T00:31:21.421Z,97007.00
2023-01-08T00:33:49.596Z,96990.00
2023-01-08T00:36:21.133Z,96992.00
2023-01-08T00:38:50.594Z,96984.00
2023-01-08T00:41:19.561Z,96985.00
2023-01-08T00:43:47.767Z,96979.00
2023-01-08T00:46:15.989Z,96977.00
2023-01-08T00:48:44.149Z,96983.00
2023-01-08T00:51:15.016Z,96982.00
2023-01-08T00:53:43.149Z,96989.00
2023-01-08T00:56:13.078Z,96974.00
2023-01-08T00:58:41.256Z,96972.00
2023-01-08T01:01:14.893Z,96973.00
2023-01-08T01:03:44.182Z,96969.00
2023-01-08T01:06:14.936Z,96974.00
2023-01-08T01:08:44.269Z,96972.00
2023-01-08T01:11:21.992Z,96959.00
2023-01-08T01:13:50.909Z,96953.00
2023-01-08T01:16:19.705Z,96958.00
2023-01-08T01:18:48.030Z,96955.00
2023-01-08T01:21:24.170Z,96975.00
2023-01-08T01:23:55.895Z,96976.00
2023-01-08T01:26:26.764Z,96975.00
2023-01-08T01:28:57.450Z,96962.00
2023-01-08T01:31:27.728Z,96980.00
2023-01-08T01:33:56.267Z,96965.00
2023-01-08T01:36:26.880Z,96967.00
2023-01-08T01:38:58.291Z,96960.00
2023-01-08T01:41:31.694Z,96965.00
2023-01-08T01:44:02.167Z,96960.00
2023-01-08T01:46:39.570Z,96967.00
2023-01-08T01:49:12.165Z,96976.00
2023-01-08T01:51:46.872Z,96971.00
2023-01-08T01:54:16.134Z,96965.00
2023-01-08T01:56:47.636Z,96951.00
2023-01-08T01:59:16.227Z,96960.00
2023-01-08T02:01:45.276Z,96958.00
2023-01-08T02:04:14.963Z,96966.00
2023-01-08T02:06:55.247Z,96954.00
2023-01-08T02:09:37.616Z,96960.00
2023-01-08T02:12:18.590Z,96960.00
2023-01-08T02:15:06.264Z,96937.00
2023-01-08T02:17:43.161Z,96926.00
2023-01-08T02:20:18.101Z,96931.00
2023-01-08T02:23:27.489Z,96927.00
2023-01-08T02:26:14.574Z,96931.00
2023-01-08T02:28:49.729Z,96924.00
2023-01-08T02:31:21.187Z,96919.00
2023-01-08T02:33:49.441Z,96923.00
2023-01-08T02:36:42.318Z,96912.00
2023-01-08T02:39:43.827Z,96905.00
2023-01-08T02:42:25.345Z,96909.00
2023-01-08T02:45:01.501Z,96910.00
2023-01-08T02:47:36.324Z,96902.00
2023-01-08T02:50:22.380Z,96902.00
2023-01-08T02:53:01.441Z,96898.00
2023-01-08T02:55:34.239Z,96899.00
2023-01-08T02:58:05.308Z,96906.00
2023-01-08T03:00:34.844Z,96886.00
2023-01-08T03:03:12.498Z,96888.00
2023-01-08T03:05:44.703Z,96908.00
2023-01-08T03:08:13.897Z,96891.00
2023-01-08T03:10:49.655Z,96906.00
2023-01-08T03:13:27.790Z,96918.00
2023-01-08T03:16:05.359Z,96910.00
2023-01-08T03:18:45.259Z,96909.00
2023-01-08T03:21:14.963Z,96892.00
2023-01-08T03:23:44.568Z,96887.00
2023-01-08T03:26:18.709Z,96874.00
2023-01-08T03:28:54.394Z,96891.00
2023-01-08T03:31:25.958Z,96896.00
2023-01-08T03:33:55.418Z,96874.00
2023-01-08T03:36:28.788Z,96880.00
2023-01-08T03:39:06.247Z,96872.00
2023-01-08T03:41:37.209Z,96880.00
2023-01-08T03:44:07.257Z,96879.00
2023-01-08T03:46:41.828Z,96848.00
2023-01-08T03:49:11.343Z,96854.00
2023-01-08T03:51:43.439Z,96848.00
2023-01-08T03:54:16.048Z,96852.00
2023-01-08T03:56:44.707Z,96845.00
2023-01-08T03:59:16.429Z,96844.00
2023-01-08T04:01:45.135Z,96829.00
2023-01-08T04:04:13.629Z,96840.00
2023-01-08T04:06:41.906Z,96825.00
2023-01-08T04:09:10.296Z,96815.00
2023-01-08T04:11:38.444Z,96814.00
2023-01-08T04:14:06.669Z,96825.00
2023-01-08T04:16:36.114Z,96809.00
2023-01-08T04:19:04.394Z,96790.00
2023-01-08T04:21:32.483Z,96804.00
2023-01-08T04:24:00.611Z,96811.00
2023-01-08T04:26:28.711Z,96813.00
2023-01-08T04:28:57.009Z,96823.00
2023-01-08T04:31:25.107Z,96820.00
2023-01-08T04:33:54.622Z,96823.00
2023-01-08T04:36:22.897Z,96847.00
2023-01-08T04:38:51.015Z,96822.00
2023-01-08T04:41:19.633Z,96822.00
2023-01-08T04:43:47.813Z,96838.00
2023-01-08T04:46:16.070Z,96832.00
2023-01-08T04:48:44.206Z,96828.00
2023-01-08T04:51:13.723Z,96834.00
2023-01-08T04:53:42.168Z,96849.00
2023-01-08T04:56:12.427Z,96840.00
2023-01-08T04:58:41.358Z,96831.00
2023-01-08T05:01:15.473Z,96832.00
2023-01-08T05:03:43.764Z,96830.00
2023-01-08T05:06:13.550Z,96829.00
2023-01-08T05:08:41.676Z,96801.00
2023-01-08T05:11:09.978Z,96790.00
2023-01-08T05:13:38.240Z,96806.00
2023-01-08T05:16:07.259Z,96785.00
2023-01-08T05:18:35.870Z,96774.00
2023-01-08T05:21:06.008Z,96801.00
2023-01-08T05:23:35.925Z,96792.00
2023-01-08T05:26:07.140Z,96788.00
2023-01-08T05:28:35.852Z,96793.00
2023-01-08T05:31:04.220Z,96792.00
2023-01-08T05:33:32.651Z,96792.00
2023-01-08T05:36:00.889Z,96800.00
2023-01-08T05:38:29.056Z,96812.00
2023-01-08T05:40:58.541Z,96796.00
2023-01-08T05:43:26.723Z,96812.00
2023-01-08T05:45:54.844Z,96800.00
2023-01-08T05:48:22.998Z,96791.00
2023-01-08T05:50:51.208Z,96786.00
2023-01-08T05:53:19.885Z,96790.00
2023-01-08T05:55:48.025Z,96807.00
2023-01-08T05:58:19.261Z,96787.00
2023-01-08T06:00:47.945Z,96794.00
2023-01-08T06:03:16.090Z,96815.00
2023-01-08T06:05:44.199Z,96797.00
2023-01-08T06:08:12.330Z,96794.00
2023-01-08T06:10:40.858Z,96793.00
2023-01-08T06:13:09.427Z,96778.00
2023-01-08T06:15:40.765Z,96776.00
2023-01-08T06:18:09.072Z,96770.00
2023-01-08T06:20:37.234Z,96777.00
2023-01-08T06:23:05.443Z,96762.00
2023-01-08T06:25:36.179Z,96759.00
2023-01-08T06:28:04.422Z,96762.00
2023-01-08T06:30:32.856Z,96764.00
2023-01-08T06:33:02.944Z,96764.00
2023-01-08T06:35:31.025Z,96767.00
2023-01-08T06:37:59.136Z,96773.00
2023-01-08T06:40:27.222Z,96762.00
2023-01-08T06:42:55.325Z,96765.00
2023-01-08T06:45:23.432Z,96761.00
2023-01-08T06:47:51.481Z,96754.00
2023-01-08T06:50:21.169Z,96765.00
2023-01-08T06:52:54.905Z,96769.00
2023-01-08T06:55:24.490Z,96757.00
2023-01-08T06:57:55.505Z,96754.00
2023-01-08T07:00:25.730Z,96757.00
2023-01-08T07:02:54.607Z,96770.00
2023-01-08T07:05:24.752Z,96771.00
2023-01-08T07:07:52.904Z,96760.00
2023-01-08T07:10:21.084Z,96768.00
2023-01-08T07:12:49.738Z,96760.00
2023-01-08T07:15:18.389Z,96775.00
2023-01-08T07:17:46.465Z,96778.00
2023-01-08T07:20:14.747Z,96771.00
2023-01-08T07:22:44.368Z,96781.00
2023-01-08T07:25:13.369Z,96779.00
2023-01-08T07:27:41.537Z,96793.00
2023-01-08T07:30:20.921Z,96797.00
2023-01-08T07:33:00.667Z,96792.00
2023-01-08T07:35:29.677Z,96776.00
2023-01-08T07:37:59.200Z,96792.00
2023-01-08T07:40:27.403Z,96782.00
2023-01-08T07:43:00.289Z,96779.00
2023-01-08T07:45:28.775Z,96782.00
2023-01-08T07:47:59.085Z,96781.00
2023-01-08T07:50:28.057Z,96788.00
2023-01-08T07:53:00.446Z,96797.00
2023-01-08T07:55:30.910Z,96800.00
2023-01-08T07:58:00.953Z,96788.00
2023-01-08T08:00:29.291Z,96795.00
2023-01-08T08:03:02.898Z,96784.00
2023-01-08T08:05:31.234Z,96798.00
2023-01-08T08:08:00.708Z,96785.00
2023-01-08T08:10:29.220Z,96790.00
2023-01-08T08:12:57.360Z,96788.00
2023-01-08T08:15:25.562Z,96787.00
2023-01-08T08:17:54.278Z,96798.00
2023-01-08T08:20:25.258Z,96796.00
2023-01-08T08:22:53.733Z,96801.00
2023-01-08T08:25:23.178Z,96796.00
2023-01-08T08:27:51.271Z,96796.00
2023-01-08T08:30:19.546Z,96801.00
2023-01-08T08:32:47.661Z,96813.00
2023-01-08T08:35:16.066Z,96784.00
2023-01-08T08:37:44.165Z,96801.00
2023-01-08T08:40:12.948Z,96789.00
2023-01-08T08:42:42.489Z,96778.00
2023-01-08T08:45:11.315Z,96772.00
2023-01-08T08:47:39.519Z,96775.00
2023-01-08T08:50:09.201Z,96775.00
2023-01-08T08:52:38.340Z,96771.00
2023-01-08T08:55:07.833Z,96767.00
2023-01-08T08:57:35.975Z,96773.00
2023-01-08T09:00:06.939Z,96766.00
2023-01-08T09:02:35.287Z,96764.00
2023-01-08T09:05:03.487Z,96760.00
2023-01-08T09:07:31.793Z,96783.00
2023-01-08T09:10:00.120Z,96771.00
2023-01-08T09:12:28.474Z,96769.00
2023-01-08T09:14:57.144Z,96779.00
2023-01-08T09:17:26.920Z,96767.00
2023-01-08T09:19:55.061Z,96762.00
2023-01-08T09:22:23.494Z,96769.00
2023-01-08T09:24:51.833Z,96757.00
2023-01-08T09:27:19.975Z,96757.00
2023-01-08T09:29:50.962Z,96784.00
2023-01-08T09:32:19.085Z,96774.00
2023-01-08T09:34:48.602Z,96787.00
2023-01-08T09:37:16.806Z,96779.00
2023-01-08T09:39:51.028Z,96793.00
2023-01-08T09:42:28.048Z,96774.00
2023-01-08T09:44:59.797Z,96778.00
2023-01-08T09:47:33.859Z,96785.00
2023-01-08T09:50:09.003Z,96780.00
2023-01-08T09:52:39.140Z,96776.00
2023-01-08T09:55:15.058Z,96783.00
2023-01-08T09:57:43.656Z,96788.00
2023-01-08T10:00:17.457Z,96786.00
2023-01-08T10:02:46.328Z,96797.00
2023-01-08T10:05:18.866Z,96780.00
2023-01-08T10:07:47.722Z,96767.00
2023-01-08T10:10:23.089Z,96771.00
2023-01-08T10:12:52.417Z,96781.00
2023-01-08T10:15:23.349Z,96770.00
2023-01-08T10:18:01.616Z,96758.00
2023-01-08T10:20:32.369Z,96751.00
2023-01-08T10:23:12.794Z,96754.00
2023-01-08T10:25:54.113Z,96753.00
2023-01-08T10:28:25.974Z,96742.00
2023-01-08T10:30:59.514Z,96749.00
2023-01-08T10:33:38.955Z,96743.00
2023-01-08T10:36:14.209Z,96744.00
2023-01-08T10:38:51.335Z,96726.00
2023-01-08T10:41:20.650Z,96740.00
2023-01-08T10:43:58.129Z,96734.00
2023-01-08T10:46:31.897Z,96725.00
2023-01-08T10:49:03.441Z,96714.00
2023-01-08T10:51:34.475Z,96711.00
2023-01-08T10:54:16.563Z,96716.00
2023-01-08T10:56:46.174Z,96712.00
2023-01-08T10:59:20.461Z,96716.00
2023-01-08T11:01:50.124Z,96720.00
2023-01-08T11:04:28.514Z,96723.00
2023-01-08T11:06:59.831Z,96710.00
2023-01-08T11:09:33.535Z,96685.00
2023-01-08T11:12:02.628Z,96708.00
2023-01-08T11:14:35.193Z,96701.00
2023-01-08T11:17:11.307Z,96681.00
2023-01-08T11:19:40.073Z,96695.00
2023-01-08T11:22:21.054Z,96712.00
2023-01-08T11:24:51.174Z,96697.00
2023-01-08T11:27:29.068Z,96681.00
2023-01-08T11:30:06.497Z,96688.00
2023-01-08T11:32:47.383Z,96679.00
2023-01-08T11:35:20.901Z,96684.00
2023-01-08T11:37:55.393Z,96684.00
2023-01-08T11:40:38.468Z,96680.00
2023-01-08T11:43:32.237Z,96671.00
2023-01-08T11:46:25.295Z,96674.00
2023-01-08T11:49:22.923Z,96679.00
2023-01-08T11:52:14.900Z,96677.00
2023-01-08T11:55:24.578Z,96660.00
2023-01-08T11:58:24.374Z,96653.00
2023-01-08T12:01:26.634Z,96640.00
2023-01-08T12:04:21.361Z,96644.00
2023-01-08T12:07:00.881Z,96644.00
2023-01-08T12:09:41.240Z,96626.00
2023-01-08T12:12:26.114Z,96639.00
2023-01-08T12:15:13.318Z,96636.00
2023-01-08T12:18:16.470Z,96619.00
2023-01-08T12:20:55.995Z,96615.00
2023-01-08T12:23:47.060Z,96607.00
2023-01-08T12:26:24.947Z,96613.00
2023-01-08T12:29:28.284Z,96605.00
2023-01-08T12:32:36.200Z,96603.00
2023-01-08T12:35:14.120Z,96609.00
2023-01-08T12:37:52.176Z,96596.00
2023-01-08T12:40:27.629Z,96598.00
2023-01-08T12:43:02.194Z,96589.00
2023-01-08T12:45:38.478Z,96595.00
2023-01-08T12:48:12.022Z,96583.00
2023-01-08T12:51:00.606Z,96577.00
2023-01-08T12:53:44.669Z,96579.00
2023-01-08T12:56:19.287Z,96580.00
2023-01-08T12:59:19.980Z,96595.00
2023-01-08T13:01:59.038Z,96587.00
2023-01-08T13:04:27.345Z,96577.00
2023-01-08T13:07:05.151Z,96583.00
2023-01-08T13:09:34.214Z,96596.00
2023-01-08T13:12:02.488Z,96572.00
2023-01-08T13:14:43.242Z,96573.00
2023-01-08T13:17:24.778Z,96566.00
2023-01-08T13:19:56.790Z,96553.00
2023-01-08T13:22:28.896Z,96564.00
2023-01-08T13:25:32.852Z,96558.00
2023-01-08T13:28:02.126Z,96550.00
2023-01-08T13:30:40.863Z,96544.00
2023-01-08T13:33:41.269Z,96544.00
2023-01-08T13:36:24.101Z,96537.00
2023-01-08T13:39:06.346Z,96522.00
2023-01-08T13:41:37.418Z,96524.00
2023-01-08T13:44:14.633Z,96527.00
2023-01-08T13:46:44.149Z,96520.00
2023-01-08T13:49:27.766Z,96517.00
2023-01-08T13:51:56.077Z,96525.00
2023-01-08T13:54:36.395Z,96523.00
2023-01-08T13:57:13.047Z,96532.00
2023-01-08T13:59:48.997Z,96531.00
2023-01-08T14:02:27.710Z,96526.00
2023-01-08T14:04:58.719Z,96537.00
2023-01-08T14:07:27.714Z,96532.00
2023-01-08T14:10:07.791Z,96537.00
2023-01-08T14:12:36.629Z,96528.00
2023-01-08T14:15:11.203Z,96514.00
2023-01-08T14:17:39.360Z,96525.00
2023-01-08T14:20:13.471Z,96537.00
2023-01-08T14:22:43.399Z,96534.00
2023-01-08T14:25:20.052Z,96524.00
2023-01-08T14:27:58.862Z,96530.00
2023-01-08T14:30:28.436Z,96525.00
2023-01-08T14:32:58.671Z,96526.00
2023-01-08T14:35:35.546Z,96530.00
2023-01-08T14:38:05.632Z,96520.00
2023-01-08T14:40:40.019Z,96512.00
2023-01-08T14:43:12.825Z,96526.00
2023-01-08T14:45:48.646Z,96527.00
2023-01-08T14:48:23.646Z,96534.00
2023-01-08T14:51:05.482Z,96517.00
2023-01-08T14:53:37.204Z,96523.00
2023-01-08T14:56:08.461Z,96530.00
2023-01-08T14:58:40.187Z,96543.00
2023-01-08T15:01:16.622Z,96546.00
2023-01-08T15:03:47.490Z,96541.00
2023-01-08T15:06:29.486Z,96523.00
2023-01-08T15:08:58.532Z,96527.00
2023-01-08T15:11:31.483Z,96525.00
2023-01-08T15:14:01.667Z,96515.00
2023-01-08T15:16:33.591Z,96518.00
2023-01-08T15:19:07.760Z,96517.00
2023-01-08T15:21:38.274Z,96500.00
2023-01-08T15:24:09.035Z,96507.00
2023-01-08T15:26:43.406Z,96510.00
2023-01-08T15:29:21.044Z,96511.00
2023-01-08T15:31:50.496Z,96502.00
2023-01-08T15:34:21.354Z,96515.00
2023-01-08T15:36:50.910Z,96513.00
2023-01-08T15:39:19.066Z,96513.00
2023-01-08T15:42:05.045Z,96507.00
2023-01-08T15:44:33.218Z,96491.00
2023-01-08T15:47:01.339Z,96502.00
2023-01-08T15:49:29.483Z,96504.00
2023-01-08T15:51:59.055Z,96499.00
2023-01-08T15:54:27.582Z,96499.00
2023-01-08T15:56:55.742Z,96487.00
2023-01-08T15:59:23.925Z,96480.00
2023-01-08T16:01:52.155Z,96476.00
2023-01-08T16:04:20.486Z,96476.00
2023-01-08T16:06:51.903Z,96467.00
2023-01-08T16:09:21.469Z,96470.00
2023-01-08T16:11:50.307Z,96463.00
2023-01-08T16:14:18.417Z,96464.00
2023-01-08T16:16:46.699Z,96450.00
2023-01-08T16:19:14.879Z,96445.00
2023-01-08T16:21:46.890Z,96448.00
2023-01-08T16:24:15.426Z,96460.00
2023-01-08T16:26:44.968Z,96464.00
2023-01-08T16:29:13.157Z,96441.00
2023-01-08T16:31:46.001Z,96426.00
2023-01-08T16:34:15.753Z,96443.00
2023-01-08T16:36:44.069Z,96439.00
2023-01-08T16:39:12.364Z,96432.00
2023-01-08T16:41:40.528Z,96423.00
2023-01-08T16:44:26.237Z,96425.00
2023-01-08T16:46:56.199Z,96420.00
2023-01-08T16:49:24.421Z,96431.00
2023-01-08T16:51:52.567Z,96415.00
2023-01-08T16:54:21.635Z,96407.00
2023-01-08T16:56:49.870Z,96407.00
2023-01-08T16:59:23.805Z,96410.00
2023-01-08T17:01:52.454Z,96391.00
2023-01-08T17:04:21.009Z,96387.00
2023-01-08T17:06:49.966Z,96401.00
2023-01-08T17:09:18.268Z,96386.00
2023-01-08T17:11:47.646Z,96375.00
2023-01-08T17:14:16.078Z,96375.00
2023-01-08T17:16:47.417Z,96372.00
2023-01-08T17:19:16.280Z,96375.00
2023-01-08T17:21:45.802Z,96374.00
2023-01-08T17:24:14.150Z,96362.00
2023-01-08T17:26:42.507Z,96349.00
2023-01-08T17:29:10.798Z,96346.00
2023-01-08T17:31:40.568Z,96347.00
2023-01-08T17:34:14.680Z,96350.00
2023-01-08T17:36:42.920Z,96333.00
2023-01-08T17:39:12.450Z,96329.00
2023-01-08T17:41:58.307Z,96314.00
2023-01-08T17:44:27.339Z,96329.00
2023-01-08T17:46:55.593Z,96320.00
2023-01-08T17:49:25.238Z,96314.00
2023-01-08T17:51:53.732Z,96307.00
2023-01-08T17:54:24.086Z,96309.00
2023-01-08T17:56:53.589Z,96318.00
2023-01-08T17:59:22.470Z,96311.00
2023-01-08T18:01:53.378Z,96321.00
2023-01-08T18:04:21.893Z,96305.00
2023-01-08T18:06:51.360Z,96294.00
2023-01-08T18:09:19.878Z,96295.00
2023-01-08T18:11:48.190Z,96304.00
2023-01-08T18:14:16.347Z,96299.00
2023-01-08T18:16:45.517Z,96305.00
2023-01-08T18:19:16.636Z,96298.00
2023-01-08T18:21:45.644Z,96299.00
2023-01-08T18:24:16.520Z,96297.00
2023-01-08T18:26:46.366Z,96294.00
2023-01-08T18:29:14.715Z,96295.00
2023-01-08T18:31:45.050Z,96284.00
2023-01-08T18:34:15.068Z,96293.00
2023-01-08T18:36:43.918Z,96285.00
2023-01-08T18:39:14.889Z,96275.00
2023-01-08T18:42:00.898Z,96275.00
2023-01-08T18:44:29.337Z,96277.00
2023-01-08T18:46:57.470Z,96281.00
2023-01-08T18:49:27.495Z,96276.00
2023-01-08T18:51:55.901Z,96282.00
2023-01-08T18:54:28.049Z,96273.00
2023-01-08T18:56:56.253Z,96289.00
2023-01-08T18:59:24.591Z,96281.00
2023-01-08T19:01:53.269Z,96274.00
2023-01-08T19:04:21.500Z,96269.00
2023-01-08T19:06:49.869Z,96270.00
2023-01-08T19:09:18.182Z,96253.00
2023-01-08T19:11:47.851Z,96259.00
2023-01-08T19:14:16.030Z,96261.00
2023-01-08T19:16:49.403Z,96261.00
2023-01-08T19:19:17.670Z,96250.00
2023-01-08T19:21:45.907Z,96254.00
2023-01-08T19:24:15.008Z,96241.00
2023-01-08T19:26:43.249Z,96237.00
2023-01-08T19:29:13.202Z,96220.00
2023-01-08T19:31:41.517Z,96231.00
2023-01-08T19:34:12.088Z,96244.00
2023-01-08T19:36:42.342Z,96219.00
2023-01-08T19:39:12.055Z,96204.00
2023-01-08T19:41:58.475Z,96198.00
2023-01-08T19:44:28.020Z,96213.00
2023-01-08T19:46:56.269Z,96210.00
2023-01-08T19:49:25.576Z,96204.00
2023-01-08T19:51:53.755Z,96204.00
2023-01-08T19:54:25.682Z,96215.00
2023-01-08T19:56:54.001Z,96218.00
2023-01-08T19:59:22.933Z,96213.00
2023-01-08T20:01:52.744Z,96201.00
2023-01-08T20:04:21.379Z,96198.00
2023-01-08T20:06:49.705Z,96200.00
2023-01-08T20:09:17.829Z,96193.00
2023-01-08T20:11:46.338Z,96209.00
2023-01-08T20:14:14.504Z,96206.00
2023-01-08T20:16:42.709Z,96204.00
2023-01-08T20:19:12.231Z,96200.00
2023-01-08T20:21:40.494Z,96202.00
2023-01-08T20:24:12.023Z,96185.00
2023-01-08T20:26:41.428Z,96191.00
2023-01-08T20:29:10.121Z,96191.00
2023-01-08T20:31:39.966Z,96194.00
2023-01-08T20:34:15.264Z,96177.00
2023-01-08T20:36:45.246Z,96176.00
2023-01-08T20:39:15.955Z,96153.00
2023-01-08T20:41:50.383Z,96147.00
2023-01-08T20:44:32.044Z,96147.00
2023-01-08T20:47:00.893Z,96131.00
2023-01-08T20:49:30.444Z,96132.00
2023-01-08T20:52:00.037Z,96123.00
2023-01-08T20:54:30.066Z,96123.00
2023-01-08T20:57:00.385Z,96114.00
2023-01-08T20:59:29.603Z,96111.00
2023-01-08T21:01:58.134Z,96105.00
2023-01-08T21:04:26.386Z,96106.00
2023-01-08T21:06:56.019Z,96104.00
2023-01-08T21:09:24.213Z,96100.00
2023-01-08T21:11:52.419Z,96091.00
2023-01-08T21:14:20.776Z,96096.00
2023-01-08T21:16:48.978Z,96099.00
2023-01-08T21:19:17.096Z,96084.00
2023-01-08T21:21:45.749Z,96094.00
2023-01-08T21:24:15.430Z,96104.00
2023-01-08T21:26:46.894Z,96087.00
2023-01-08T21:29:16.907Z,96078.00
2023-01-08T21:31:45.152Z,96095.00
2023-01-08T21:34:13.956Z,96077.00
2023-01-08T21:36:42.155Z,96078.00
2023-01-08T21:39:11.936Z,96078.00
2023-01-08T21:41:59.117Z,96087.00
2023-01-08T21:44:45.812Z,96082.00
2023-01-08T21:47:17.607Z,96091.00
2023-01-08T21:49:46.728Z,96087.00
2023-01-08T21:52:33.028Z,96059.00
2023-01-08T21:55:01.510Z,96065.00
2023-01-08T21:57:31.123Z,96078.00
2023-01-08T21:59:59.331Z,96074.00
2023-01-08T22:02:27.605Z,96061.00
2023-01-08T22:04:57.258Z,96051.00
2023-01-08T22:07:25.945Z,96054.00
2023-01-08T22:09:54.511Z,96047.00
2023-01-08T22:12:24.192Z,96040.00
2023-01-08T22:14:55.990Z,96048.00
2023-01-08T22:17:26.652Z,96039.00
2023-01-08T22:19:54.889Z,96034.00
2023-01-08T22:22:23.006Z,96028.00
2023-01-08T22:24:52.156Z,96032.00
2023-01-08T22:27:20.845Z,96034.00
2023-01-08T22:29:49.043Z,96026.00
2023-01-08T22:32:18.751Z,96022.00
2023-01-08T22:34:46.972Z,96025.00
2023-01-08T22:37:16.830Z,96011.00
2023-01-08T22:39:46.481Z,96008.00
2023-01-08T22:42:14.608Z,96014.00
2023-01-08T22:44:42.784Z,96024.00
2023-01-08T22:47:10.970Z,96008.00
2023-01-08T22:49:40.462Z,96002.00
2023-01-08T22:52:09.833Z,96007.00
2023-01-08T22:54:39.090Z,95992.00
2023-01-08T22:57:07.718Z,95992.00
2023-01-08T22:59:36.259Z,95988.00
2023-01-08T23:02:04.409Z,95987.00
2023-01-08T23:04:32.634Z,95992.00
2023-01-08T23:07:02.112Z,95978.00
2023-01-08T23:09:30.282Z,95989.00
2023-01-08T23:11:58.377Z,95990.00
2023-01-08T23:14:26.500Z,95979.00
2023-01-08T23:16:54.613Z,95980.00
2023-01-08T23:19:22.728Z,95983.00
2023-01-08T23:21:50.953Z,95972.00
2023-01-08T23:24:20.435Z,95966.00
2023-01-08T23:26:48.623Z,95960.00
2023-01-08T23:29:16.768Z,95967.00
2023-01-08T23:31:45.015Z,95974.00
2023-01-08T23:34:13.320Z,95973.00
2023-01-08T23:36:42.922Z,95972.00
2023-01-08T23:39:11.832Z,95956.00
2023-01-08T23:41:41.425Z,95946.00
2023-01-08T23:44:15.301Z,95948.00
2023-01-08T23:46:43.606Z,95953.00
2023-01-08T23:49:11.768Z,95950.00
2023-01-08T23:51:42.111Z,95944.00
2023-01-08T23:54:11.196Z,95942.00
2023-01-08T23:56:41.296Z,95942.00
2023-01-08T23:59:09.793Z,95935.00
